x

Middle Nomad (46004) Wave Buoy

4:00pm - Wed 4th Mar 2015 All times are PST. -8 hours from GMT.

  • Sig Wave height 6.2ft
  • Peak Period 14s
  • Wind
    9mph, 11mph gusts
  • Sea Temp 48°f
  • Air Temp 47°f
  • Sea Pressure 1019.2mb
  • Middle Nomad
  • Middle Nomad

More Historic Weather Station data

Upgrade to MSW Pro to gain access to the past 30 days of data for over 8000 Wavebouys and Weather Stations around the globe.

Join Pro

Comparision Forecast

View Surf forecast
   
Wed 03/04 4:00pm 6ft 14s 9 11 mph 1019.2mb 48f 47f
3:00pm 6ft 14s 13 16 mph 1019.2mb 48f 47f
2:00pm 6ft 14s 13 16 mph 1019.4mb 48f 48f
12:00pm 5.5ft 14s 18 20 mph 1019.7mb 48f 49f
11:00am 5.5ft 6s 18 22 mph 1019.9mb 48f 49f
10:00am 5.5ft 15s 18 20 mph 1020.1mb 48f 49f
9:00am 5ft 14s 18 22 mph 1020.1mb 48f 49f
8:00am 5ft 14s 20 25 mph 1020.2mb 48f 48f
7:00am 4.5ft 15s 20 25 mph 1020.6mb 48f 47f
6:00am 4.5ft 15s 20 25 mph 1021.1mb 48f 47f
5:00am 4ft 15s 18 22 mph 1021.5mb 48f 47f
4:00am 4ft 15s 18 20 mph 1022.3mb 48f 46f
3:00am 3.5ft 15s 13 18 mph 1023.1mb 48f 47f
2:00am 3.5ft 15s 13 18 mph 1024mb 48f 47f
1:00am 3.5ft 15s 9 13 mph 1024.5mb 48f 47f
12:00am 3.5ft 7s 11 13 mph 1024.7mb 48f 46f
Tue 03/03 11:00pm 3.5ft 8s 11 13 mph 1025.1mb 48f 46f
10:00pm 3.5ft 9s 2 4 mph 1025.5mb 48f 45f
9:00pm 3.5ft 10s 7 9 mph 1026.1mb 48f 44f
8:00pm 4ft 10s 4 7 mph 1026.4mb 48f 45f
7:00pm 4ft 10s 2 4 mph 1026.3mb 48f 45f
6:00pm 4ft 8s 4 7 mph 1026.5mb 48f 46f
5:00pm 4ft 10s 4 7 mph 1026.6mb 48f 46f
4:00pm 4ft 11s 7 9 mph 1027.2mb 48f 45f
3:00pm 3.5ft 8s 2 7 mph 1027.6mb 48f 46f
2:00pm 3.5ft 10s 9 13 mph 1027.8mb 48f 45f
1:00pm 3.5ft 11s 7 9 mph 1028.1mb 48f 46f
12:00pm 3.5ft 11s 7 9 mph 1028mb 48f 46f
11:00am 3.5ft 12s 9 13 mph 1027.9mb 48f 45f
10:00am 3.5ft 11s 11 13 mph 1028mb 48f 45f
9:00am 3.5ft 12s 11 13 mph 1027.9mb 48f 44f
8:00am 3.5ft 12s 13 16 mph 1027.9mb 48f 44f
7:00am 3.5ft 12s 13 18 mph 1027.8mb 48f 45f
6:00am 3.5ft 11s 16 18 mph 1027.4mb 48f 45f
5:00am 3.5ft 13s 13 18 mph 1027.1mb 48f 46f
4:00am 3.5ft 12s 16 18 mph 1026.8mb 48f 47f
3:00am 3.5ft 7s 13 16 mph 1026.8mb 48f 47f
2:00am 3.5ft 12s 13 16 mph 1026.7mb 48f 48f
1:00am 3.5ft 12s 11 13 mph 1026.9mb 48f 48f
12:00am 3.5ft 13s 9 11 mph 1027.2mb 48f 47f
Mon 03/02 11:00pm 3.5ft 12s 11
mph
1027.2mb 48f 47f
10:00pm 3.5ft 12s 9 13 mph 1027.1mb 48f 47f
9:00pm 3.5ft 11s 13 16 mph 1027.1mb 48f 46f
8:00pm 3.5ft 12s 11 13 mph 1027.1mb 48f 46f
7:00pm 3.5ft 11s 7 9 mph 1027.1mb 48f 46f
6:00pm 3.5ft 12s 4
mph
1027.3mb 48f 45f
5:00pm 3.5ft 13s 9
mph
1027.9mb 48f 45f
4:00pm 3.5ft 13s 4
mph
1028mb 48f 45f
3:00pm 4ft 11s 4 7 mph 1027.9mb 48f 44f
2:00pm 3.5ft 12s 7
mph
1028.5mb 48f 44f
1:00pm 3.5ft 12s 7 9 mph 1029.1mb 48f 44f
12:00pm 4ft 12s 4 9 mph 1029mb 48f 44f
11:00am 3.5ft 12s 7 9 mph 1028.9mb 48f 44f
10:00am 4ft 12s 7 11 mph 1028.6mb 48f 43f
9:00am 4.5ft 12s 7 9 mph 1028.6mb 48f 43f
8:00am 4.5ft 12s 9 13 mph 1028.9mb 48f 42f
7:00am 4.5ft 12s 7 11 mph 1028.9mb 48f 42f
6:00am 4.5ft 12s 9 13 mph 1029.2mb 48f 42f
5:00am 4.5ft 7s 11 16 mph 1028.9mb 48f 42f
4:00am 5ft 7s 11 16 mph 1029.4mb 48f 43f
3:00am 5ft 12s 16 18 mph 1029.6mb 48f 44f
2:00am 5ft 7s 16 20 mph 1030mb 48f 44f
1:00am 5ft 7s 13 16 mph 1030.2mb 48f 44f
12:00am 5ft 7s 13 18 mph 1030.3mb 48f 44f
Sun 03/01 11:00pm 5ft 7s 16 18 mph 1030.3mb 48f 44f
10:00pm 5.5ft 7s 18 20 mph 1030.2mb 48f 44f
9:00pm 5.5ft 13s 18 20 mph 1030.3mb 48f 45f
8:00pm 5.5ft 7s 18 22 mph 1030mb 48f 46f
7:00pm 5.5ft 6s 18 22 mph 1030mb 48f 46f
6:00pm 5ft 6s 20 25 mph 1030mb 48f 47f
5:00pm 5ft 6s 18 25 mph 1029.9mb 48f 47f
4:00pm 5ft 6s 20 27 mph 1030.2mb 48f 47f
3:00pm 4.5ft 13s 18 25 mph 1030.2mb 48f 47f
2:00pm 4.5ft 5s 20 25 mph 1030.5mb 48f 47f
1:00pm 4.5ft 6s 20 22 mph 1030.3mb 48f 47f
12:00pm 4ft 6s 18 22 mph 1030.6mb 48f 47f
11:00am 4ft 5s 18 20 mph 1030.8mb 48f 47f
10:00am 4ft 4s 16 18 mph 1030.8mb 48f 47f
9:00am 4ft 5s 13 16 mph 1030.9mb 48f 46f
8:00am 4ft 13s 18 20 mph 1030.5mb 48f 47f
7:00am 4ft 6s 20 22 mph 1030.8mb 48f 47f
6:00am 4ft 13s 18 22 mph 1031.1mb 48f 46f
5:00am 3.5ft 6s 18 22 mph 1031.3mb 48f 46f
4:00am 3.5ft 6s 20 25 mph 1031.6mb 48f 46f
3:00am 3.5ft 13s 13 22 mph 1031.5mb 48f 46f
2:00am 3.5ft 6s 20 22 mph 1032.1mb 48f 46f